sensor_id;sensor_type;location;lat;lon;timestamp;pressure;altitude;pressure_sealevel;temperature;humidity
3524;BME280;1776;53.330;11.498;2022-08-21T00:00:12;53687.06;;;-147.39;52.80
3524;BME280;1776;53.330;11.498;2022-08-21T00:02:48;53666.56;;;-147.39;53.08
3524;BME280;1776;53.330;11.498;2022-08-21T00:05:13;53682.97;;;-147.39;53.24
3524;BME280;1776;53.330;11.498;2022-08-21T00:07:39;53816.13;;;-147.39;53.58
3524;BME280;1776;53.330;11.498;2022-08-21T00:10:05;53691.16;;;-147.39;53.42
3524;BME280;1776;53.330;11.498;2022-08-21T00:12:30;53687.06;;;-147.39;53.61
3524;BME280;1776;53.330;11.498;2022-08-21T00:14:56;53672.72;;;-147.39;53.79
3524;BME280;1776;53.330;11.498;2022-08-21T00:17:21;53701.41;;;-147.39;53.88
3524;BME280;1776;53.330;11.498;2022-08-21T00:19:48;53676.81;;;-147.39;53.89
3524;BME280;1776;53.330;11.498;2022-08-21T00:22:13;53662.47;;;-147.39;54.10
3524;BME280;1776;53.330;11.498;2022-08-21T00:24:39;53715.75;;;-147.39;54.07
3524;BME280;1776;53.330;11.498;2022-08-21T00:27:04;53697.31;;;-147.39;54.12
3524;BME280;1776;53.330;11.498;2022-08-21T00:29:29;53707.56;;;-147.39;54.18
3524;BME280;1776;53.330;11.498;2022-08-21T00:31:55;53660.44;;;-147.39;54.23
3524;BME280;1776;53.330;11.498;2022-08-21T00:34:20;53680.91;;;-147.39;54.28
3524;BME280;1776;53.330;11.498;2022-08-21T00:36:45;53695.25;;;-147.39;54.61
3524;BME280;1776;53.330;11.498;2022-08-21T00:39:10;53709.59;;;-147.39;54.79
3524;BME280;1776;53.330;11.498;2022-08-21T00:41:38;53689.13;;;-147.39;54.71
3524;BME280;1776;53.330;11.498;2022-08-21T00:44:09;53701.41;;;-147.39;54.83
3524;BME280;1776;53.330;11.498;2022-08-21T00:46:35;53685.00;;;-147.39;54.88
3524;BME280;1776;53.330;11.498;2022-08-21T00:49:01;53738.28;;;-147.39;55.03
3524;BME280;1776;53.330;11.498;2022-08-21T00:51:36;53701.41;;;-147.39;55.04
3524;BME280;1776;53.330;11.498;2022-08-21T00:54:03;53676.81;;;-147.39;54.84
3524;BME280;1776;53.330;11.498;2022-08-21T00:56:29;53719.84;;;-147.39;54.92
3524;BME280;1776;53.330;11.498;2022-08-21T00:58:55;53687.06;;;-147.39;55.00
3524;BME280;1776;53.330;11.498;2022-08-21T01:01:21;53703.44;;;-147.39;54.89
3524;BME280;1776;53.330;11.498;2022-08-21T01:03:47;53695.25;;;-147.39;54.88
3524;BME280;1776;53.330;11.498;2022-08-21T01:06:13;53728.03;;;-147.39;54.60
3524;BME280;1776;53.330;11.498;2022-08-21T01:08:39;53703.44;;;-147.39;54.79
3524;BME280;1776;53.330;11.498;2022-08-21T01:11:05;53703.44;;;-147.39;54.86
3524;BME280;1776;53.330;11.498;2022-08-21T01:13:32;53740.31;;;-147.39;55.01
3524;BME280;1776;53.330;11.498;2022-08-21T01:16:00;53701.41;;;-147.39;54.85
3524;BME280;1776;53.330;11.498;2022-08-21T01:18:27;53738.28;;;-147.39;54.92
3524;BME280;1776;53.330;11.498;2022-08-21T01:21:00;53924.72;;;-147.39;55.20
3524;BME280;1776;53.330;11.498;2022-08-21T01:23:25;53805.88;;;-147.39;55.04
3524;BME280;1776;53.330;11.498;2022-08-21T01:25:51;53709.59;;;-147.39;55.14
3524;BME280;1776;53.330;11.498;2022-08-21T01:28:16;53687.06;;;-147.39;55.26
3524;BME280;1776;53.330;11.498;2022-08-21T01:30:43;53703.44;;;-147.39;55.22
3524;BME280;1776;53.330;11.498;2022-08-21T01:33:09;53730.09;;;-147.39;55.35
3524;BME280;1776;53.330;11.498;2022-08-21T01:35:34;53738.28;;;-147.39;55.40
3524;BME280;1776;53.330;11.498;2022-08-21T01:38:00;53723.94;;;-147.39;55.50
3524;BME280;1776;53.330;11.498;2022-08-21T01:40:26;53709.59;;;-147.39;56.20
3524;BME280;1776;53.330;11.498;2022-08-21T01:42:51;53734.19;;;-147.39;56.74
3524;BME280;1776;53.330;11.498;2022-08-21T01:45:16;53726.00;;;-147.39;56.84
3524;BME280;1776;53.330;11.498;2022-08-21T01:47:43;53750.56;;;-147.39;56.74
3524;BME280;1776;53.330;11.498;2022-08-21T01:50:12;53738.28;;;-147.39;56.78
3524;BME280;1776;53.330;11.498;2022-08-21T01:52:38;53736.22;;;-147.39;56.54
3524;BME280;1776;53.330;11.498;2022-08-21T01:55:04;53703.44;;;-147.39;56.75
3524;BME280;1776;53.330;11.498;2022-08-21T01:57:31;53736.22;;;-147.39;56.54
3524;BME280;1776;53.330;11.498;2022-08-21T01:59:57;53734.19;;;-147.39;56.70
3524;BME280;1776;53.330;11.498;2022-08-21T02:02:23;53715.75;;;-147.39;56.67
3524;BME280;1776;53.330;11.498;2022-08-21T02:04:48;53734.19;;;-147.39;56.94
3524;BME280;1776;53.330;11.498;2022-08-21T02:07:13;53744.44;;;-147.39;56.65
3524;BME280;1776;53.330;11.498;2022-08-21T02:09:40;53730.09;;;-147.39;56.58
3524;BME280;1776;53.330;11.498;2022-08-21T02:12:09;53721.88;;;-147.39;57.09
3524;BME280;1776;53.330;11.498;2022-08-21T02:14:34;53719.84;;;-147.39;56.78
3524;BME280;1776;53.330;11.498;2022-08-21T02:17:00;53797.69;;;-147.39;56.68
3524;BME280;1776;53.330;11.498;2022-08-21T02:19:25;53719.84;;;-147.39;56.80
3524;BME280;1776;53.330;11.498;2022-08-21T02:21:50;53748.53;;;-147.39;56.69
3524;BME280;1776;53.330;11.498;2022-08-21T02:24:15;53740.31;;;-147.39;56.88
3524;BME280;1776;53.330;11.498;2022-08-21T02:26:41;53726.00;;;-147.39;56.92
3524;BME280;1776;53.330;11.498;2022-08-21T02:29:06;53762.88;;;-147.39;57.03
3524;BME280;1776;53.330;11.498;2022-08-21T02:31:31;53750.56;;;-147.39;56.91
3524;BME280;1776;53.330;11.498;2022-08-21T02:33:57;53721.88;;;-147.39;57.06
3524;BME280;1776;53.330;11.498;2022-08-21T02:36:23;53744.44;;;-147.39;56.95
3524;BME280;1776;53.330;11.498;2022-08-21T02:38:48;53748.53;;;-147.39;56.91
3524;BME280;1776;53.330;11.498;2022-08-21T02:41:16;53689.13;;;-147.39;57.12
3524;BME280;1776;53.330;11.498;2022-08-21T02:43:42;53744.44;;;-147.39;56.97
3524;BME280;1776;53.330;11.498;2022-08-21T02:46:09;53701.41;;;-147.39;57.04
3524;BME280;1776;53.330;11.498;2022-08-21T02:48:36;53756.72;;;-147.39;57.08
3524;BME280;1776;53.330;11.498;2022-08-21T02:51:10;53764.91;;;-147.39;57.04
3524;BME280;1776;53.330;11.498;2022-08-21T02:53:36;53754.66;;;-147.39;57.03
3524;BME280;1776;53.330;11.498;2022-08-21T02:56:04;53775.16;;;-147.39;57.08
3524;BME280;1776;53.330;11.498;2022-08-21T02:58:33;53760.81;;;-147.39;57.14
3524;BME280;1776;53.330;11.498;2022-08-21T03:00:59;53934.97;;;-147.39;57.39
3524;BME280;1776;53.330;11.498;2022-08-21T03:03:27;53752.63;;;-147.39;57.35
3524;BME280;1776;53.330;11.498;2022-08-21T03:05:53;53752.63;;;-147.39;57.30
3524;BME280;1776;53.330;11.498;2022-08-21T03:08:20;53740.31;;;-147.39;57.14
3524;BME280;1776;53.330;11.498;2022-08-21T03:10:48;53756.72;;;-147.39;57.59
3524;BME280;1776;53.330;11.498;2022-08-21T03:13:14;53742.38;;;-147.39;57.61
3524;BME280;1776;53.330;11.498;2022-08-21T03:15:40;53734.19;;;-147.39;57.27
3524;BME280;1776;53.330;11.498;2022-08-21T03:18:08;53750.56;;;-147.39;57.48
3524;BME280;1776;53.330;11.498;2022-08-21T03:20:35;53752.63;;;-147.39;57.61
3524;BME280;1776;53.330;11.498;2022-08-21T03:23:02;53760.81;;;-147.39;57.70
3524;BME280;1776;53.330;11.498;2022-08-21T03:25:29;53762.88;;;-147.39;57.63
3524;BME280;1776;53.330;11.498;2022-08-21T03:27:57;53758.75;;;-147.39;57.78
3524;BME280;1776;53.330;11.498;2022-08-21T03:30:22;53756.72;;;-147.39;57.88
3524;BME280;1776;53.330;11.498;2022-08-21T03:32:48;53760.81;;;-147.39;57.84
3524;BME280;1776;53.330;11.498;2022-08-21T03:35:15;53766.97;;;-147.39;58.44
3524;BME280;1776;53.330;11.498;2022-08-21T03:37:40;53754.66;;;-147.39;58.12
3524;BME280;1776;53.330;11.498;2022-08-21T03:40:08;53748.53;;;-147.39;58.40
3524;BME280;1776;53.330;11.498;2022-08-21T03:42:34;53758.75;;;-147.39;58.47
3524;BME280;1776;53.330;11.498;2022-08-21T03:44:59;53726.00;;;-147.39;58.46
3524;BME280;1776;53.330;11.498;2022-08-21T03:47:25;53754.66;;;-147.39;58.54
3524;BME280;1776;53.330;11.498;2022-08-21T03:49:50;53756.72;;;-147.39;58.56
3524;BME280;1776;53.330;11.498;2022-08-21T03:52:16;53762.88;;;-147.39;58.48
3524;BME280;1776;53.330;11.498;2022-08-21T03:54:43;53773.09;;;-147.39;58.25
3524;BME280;1776;53.330;11.498;2022-08-21T03:57:08;53771.06;;;-147.39;58.06
3524;BME280;1776;53.330;11.498;2022-08-21T03:59:35;53760.81;;;-147.39;57.93
3524;BME280;1776;53.330;11.498;2022-08-21T04:02:02;53773.09;;;-147.39;57.92
3524;BME280;1776;53.330;11.498;2022-08-21T04:04:28;53769.00;;;-147.39;57.95
3524;BME280;1776;53.330;11.498;2022-08-21T04:06:55;53752.63;;;-147.39;57.92
3524;BME280;1776;53.330;11.498;2022-08-21T04:09:20;53762.88;;;-147.39;58.19
3524;BME280;1776;53.330;11.498;2022-08-21T04:11:46;53728.03;;;-147.39;58.21
3524;BME280;1776;53.330;11.498;2022-08-21T04:14:13;53762.88;;;-147.39;58.04
3524;BME280;1776;53.330;11.498;2022-08-21T04:16:39;53754.66;;;-147.39;58.13
3524;BME280;1776;53.330;11.498;2022-08-21T04:19:04;53789.50;;;-147.39;58.12
3524;BME280;1776;53.330;11.498;2022-08-21T04:21:30;53771.06;;;-147.39;57.89
3524;BME280;1776;53.330;11.498;2022-08-21T04:23:57;53771.06;;;-147.39;57.95
3524;BME280;1776;53.330;11.498;2022-08-21T04:26:22;53760.81;;;-147.39;58.21
3524;BME280;1776;53.330;11.498;2022-08-21T04:28:48;53746.47;;;-147.39;58.28
3524;BME280;1776;53.330;11.498;2022-08-21T04:31:13;53764.91;;;-147.39;58.22
3524;BME280;1776;53.330;11.498;2022-08-21T04:33:38;53758.75;;;-147.39;58.21
3524;BME280;1776;53.330;11.498;2022-08-21T04:36:04;53781.31;;;-147.39;58.36
3524;BME280;1776;53.330;11.498;2022-08-21T04:38:30;53875.53;;;-147.39;58.28
3524;BME280;1776;53.330;11.498;2022-08-21T04:40:56;53785.41;;;-147.39;58.33
3524;BME280;1776;53.330;11.498;2022-08-21T04:43:22;53769.00;;;-147.39;58.55
3524;BME280;1776;53.330;11.498;2022-08-21T04:45:49;53738.28;;;-147.39;58.63
3524;BME280;1776;53.330;11.498;2022-08-21T04:48:17;53793.59;;;-147.39;58.74
3524;BME280;1776;53.330;11.498;2022-08-21T04:53:41;53756.72;;;-147.39;59.12
3524;BME280;1776;53.330;11.498;2022-08-21T04:56:11;53773.09;;;-147.39;59.36
3524;BME280;1776;53.330;11.498;2022-08-21T04:58:39;53945.19;;;-147.39;59.48
3524;BME280;1776;53.330;11.498;2022-08-21T05:01:08;53787.44;;;-147.39;59.42
3524;BME280;1776;53.330;11.498;2022-08-21T05:03:34;53771.06;;;-147.39;59.54
3524;BME280;1776;53.330;11.498;2022-08-21T05:06:04;53771.06;;;-147.39;59.53
3524;BME280;1776;53.330;11.498;2022-08-21T05:08:30;53764.91;;;-147.39;59.86
3524;BME280;1776;53.330;11.498;2022-08-21T05:10:56;53764.91;;;-147.39;59.68
3524;BME280;1776;53.330;11.498;2022-08-21T05:13:21;53803.84;;;-147.39;59.63
3524;BME280;1776;53.330;11.498;2022-08-21T05:15:47;53775.16;;;-147.39;59.59
3524;BME280;1776;53.330;11.498;2022-08-21T05:18:12;53783.34;;;-147.39;59.62
3524;BME280;1776;53.330;11.498;2022-08-21T05:20:38;53785.41;;;-147.39;59.37
3524;BME280;1776;53.330;11.498;2022-08-21T05:23:12;53764.91;;;-147.39;59.48
3524;BME280;1776;53.330;11.498;2022-08-21T05:25:38;53764.91;;;-147.39;59.63
3524;BME280;1776;53.330;11.498;2022-08-21T05:28:04;53779.25;;;-147.39;59.67
3524;BME280;1776;53.330;11.498;2022-08-21T05:30:30;53785.41;;;-147.39;59.47
3524;BME280;1776;53.330;11.498;2022-08-21T05:33:00;53783.34;;;-147.39;59.29
3524;BME280;1776;53.330;11.498;2022-08-21T05:35:28;53773.09;;;-147.39;59.39
3524;BME280;1776;53.330;11.498;2022-08-21T05:37:54;53762.88;;;-147.39;59.40
3524;BME280;1776;53.330;11.498;2022-08-21T05:40:20;53795.66;;;-147.39;59.53
3524;BME280;1776;53.330;11.498;2022-08-21T05:42:46;53775.16;;;-147.39;59.43
3524;BME280;1776;53.330;11.498;2022-08-21T05:45:11;53744.44;;;-147.39;59.11
3524;BME280;1776;53.330;11.498;2022-08-21T05:47:37;53785.41;;;-147.39;59.36
3524;BME280;1776;53.330;11.498;2022-08-21T05:50:03;53775.16;;;-147.39;59.31
3524;BME280;1776;53.330;11.498;2022-08-21T05:52:28;53773.09;;;-147.39;59.72
3524;BME280;1776;53.330;11.498;2022-08-21T05:54:54;53744.44;;;-147.39;59.93
3524;BME280;1776;53.330;11.498;2022-08-21T05:57:20;53777.22;;;-147.39;60.57
3524;BME280;1776;53.330;11.498;2022-08-21T05:59:46;53750.56;;;-147.39;60.80
3524;BME280;1776;53.330;11.498;2022-08-21T06:02:11;53783.34;;;-147.39;60.55
3524;BME280;1776;53.330;11.498;2022-08-21T06:04:40;53750.56;;;-147.39;60.26
3524;BME280;1776;53.330;11.498;2022-08-21T06:07:06;53750.56;;;-147.39;59.79
3524;BME280;1776;53.330;11.498;2022-08-21T06:09:32;53799.75;;;-147.39;59.82
3524;BME280;1776;53.330;11.498;2022-08-21T06:11:57;53760.81;;;-147.39;59.51
3524;BME280;1776;53.330;11.498;2022-08-21T06:14:23;53744.44;;;-147.39;59.19
3524;BME280;1776;53.330;11.498;2022-08-21T06:16:48;53744.44;;;-147.39;59.04
3524;BME280;1776;53.330;11.498;2022-08-21T06:19:13;53744.44;;;-147.39;58.56
3524;BME280;1776;53.330;11.498;2022-08-21T06:21:38;53764.91;;;-147.39;58.32
3524;BME280;1776;53.330;11.498;2022-08-21T06:24:05;53746.47;;;-147.39;57.73
3524;BME280;1776;53.330;11.498;2022-08-21T06:26:30;53750.56;;;-147.39;58.70
3524;BME280;1776;53.330;11.498;2022-08-21T06:28:57;53742.38;;;-147.39;58.84
3524;BME280;1776;53.330;11.498;2022-08-21T06:31:24;53719.84;;;-147.39;57.51
3524;BME280;1776;53.330;11.498;2022-08-21T06:33:50;53723.94;;;-147.39;58.42
3524;BME280;1776;53.330;11.498;2022-08-21T06:36:18;53748.53;;;-147.39;58.15
3524;BME280;1776;53.330;11.498;2022-08-21T06:38:43;53740.31;;;-147.39;58.26
3524;BME280;1776;53.330;11.498;2022-08-21T06:41:10;53736.22;;;-147.39;58.65
3524;BME280;1776;53.330;11.498;2022-08-21T06:43:36;53742.38;;;-147.39;58.68
3524;BME280;1776;53.330;11.498;2022-08-21T06:46:01;53732.13;;;-147.39;58.70
3524;BME280;1776;53.330;11.498;2022-08-21T06:48:26;53740.31;;;-147.39;58.42
3524;BME280;1776;53.330;11.498;2022-08-21T06:50:53;53748.53;;;-147.39;58.16
3524;BME280;1776;53.330;11.498;2022-08-21T06:53:20;53728.03;;;-147.39;58.10
3524;BME280;1776;53.330;11.498;2022-08-21T06:55:47;53730.09;;;-147.39;58.32
3524;BME280;1776;53.330;11.498;2022-08-21T06:58:13;53709.59;;;-147.39;57.80
3524;BME280;1776;53.330;11.498;2022-08-21T07:00:41;53752.63;;;-147.39;57.45
3524;BME280;1776;53.330;11.498;2022-08-21T07:03:07;53728.03;;;-147.39;57.33
3524;BME280;1776;53.330;11.498;2022-08-21T07:05:32;53721.88;;;-147.39;56.62
3524;BME280;1776;53.330;11.498;2022-08-21T07:07:58;53687.06;;;-147.39;56.46
3524;BME280;1776;53.330;11.498;2022-08-21T07:10:25;53713.69;;;-147.39;57.13
3524;BME280;1776;53.330;11.498;2022-08-21T07:12:51;53705.50;;;-147.39;57.34
3524;BME280;1776;53.330;11.498;2022-08-21T07:15:17;53693.22;;;-147.39;57.23
3524;BME280;1776;53.330;11.498;2022-08-21T07:17:43;53695.25;;;-147.39;56.35
3524;BME280;1776;53.330;11.498;2022-08-21T07:20:09;53660.44;;;-147.39;56.18
3524;BME280;1776;53.330;11.498;2022-08-21T07:22:36;53707.56;;;-147.39;56.68
3524;BME280;1776;53.330;11.498;2022-08-21T07:25:03;53662.47;;;-147.39;56.92
3524;BME280;1776;53.330;11.498;2022-08-21T07:27:29;53682.97;;;-147.39;56.92
3524;BME280;1776;53.330;11.498;2022-08-21T07:29:54;53682.97;;;-147.39;56.85
3524;BME280;1776;53.330;11.498;2022-08-21T07:32:19;53666.56;;;-147.39;56.31
3524;BME280;1776;53.330;11.498;2022-08-21T07:34:45;53711.66;;;-147.39;56.26
3524;BME280;1776;53.330;11.498;2022-08-21T07:37:10;53682.97;;;-147.39;54.73
3524;BME280;1776;53.330;11.498;2022-08-21T07:39:35;53689.13;;;-147.39;53.49
3524;BME280;1776;53.330;11.498;2022-08-21T07:42:01;53678.88;;;-147.39;54.08
3524;BME280;1776;53.330;11.498;2022-08-21T07:44:28;53652.25;;;-147.39;53.32
3524;BME280;1776;53.330;11.498;2022-08-21T07:46:53;53682.97;;;-147.39;53.68
3524;BME280;1776;53.330;11.498;2022-08-21T07:49:19;53660.44;;;-147.39;53.21
3524;BME280;1776;53.330;11.498;2022-08-21T07:51:44;53674.78;;;-147.39;52.48
3524;BME280;1776;53.330;11.498;2022-08-21T07:54:09;53668.63;;;-147.39;52.91
3524;BME280;1776;53.330;11.498;2022-08-21T07:56:34;53666.56;;;-147.39;52.78
3524;BME280;1776;53.330;11.498;2022-08-21T07:59:00;53685.00;;;-147.39;52.39
3524;BME280;1776;53.330;11.498;2022-08-21T08:01:27;53660.44;;;-147.39;51.09
3524;BME280;1776;53.330;11.498;2022-08-21T08:03:53;53658.38;;;-147.39;51.23
3524;BME280;1776;53.330;11.498;2022-08-21T08:06:18;53652.25;;;-147.39;50.73
3524;BME280;1776;53.330;11.498;2022-08-21T08:08:44;53652.25;;;-147.39;50.94
3524;BME280;1776;53.330;11.498;2022-08-21T08:11:10;53662.47;;;-147.39;50.64
3524;BME280;1776;53.330;11.498;2022-08-21T08:13:41;53637.91;;;-147.39;50.19
3524;BME280;1776;53.330;11.498;2022-08-21T08:16:07;53607.16;;;-147.39;48.42
3524;BME280;1776;53.330;11.498;2022-08-21T08:18:32;53613.31;;;-147.39;47.76
3524;BME280;1776;53.330;11.498;2022-08-21T08:20:57;53631.75;;;-147.39;47.38
3524;BME280;1776;53.330;11.498;2022-08-21T08:23:23;53617.41;;;-147.39;47.79
3524;BME280;1776;53.330;11.498;2022-08-21T08:25:48;53590.78;;;-147.39;48.17
3524;BME280;1776;53.330;11.498;2022-08-21T08:28:13;53625.59;;;-147.39;48.46
3524;BME280;1776;53.330;11.498;2022-08-21T08:30:39;53615.38;;;-147.39;46.93
3524;BME280;1776;53.330;11.498;2022-08-21T08:33:04;53613.31;;;-147.39;46.94
3524;BME280;1776;53.330;11.498;2022-08-21T08:35:29;53564.16;;;-147.39;47.57
3524;BME280;1776;53.330;11.498;2022-08-21T08:37:55;53637.91;;;-147.39;46.99
3524;BME280;1776;53.330;11.498;2022-08-21T08:40:45;53601.03;;;-147.39;45.60
3524;BME280;1776;53.330;11.498;2022-08-21T08:43:13;53584.63;;;-147.39;46.18
3524;BME280;1776;53.330;11.498;2022-08-21T08:45:40;53607.16;;;-147.39;45.24
3524;BME280;1776;53.330;11.498;2022-08-21T08:48:10;53572.34;;;-147.39;45.06
3524;BME280;1776;53.330;11.498;2022-08-21T08:50:49;53580.53;;;-147.39;44.72
3524;BME280;1776;53.330;11.498;2022-08-21T08:53:21;53574.38;;;-147.39;45.20
3524;BME280;1776;53.330;11.498;2022-08-21T08:55:51;53541.63;;;-147.39;44.72
3524;BME280;1776;53.330;11.498;2022-08-21T08:58:39;53541.63;;;-147.39;43.40
3524;BME280;1776;53.330;11.498;2022-08-21T09:01:13;53558.00;;;-147.39;43.44
3524;BME280;1776;53.330;11.498;2022-08-21T09:03:41;53545.72;;;-147.39;43.93
3524;BME280;1776;53.330;11.498;2022-08-21T09:06:18;53719.84;;;-147.39;44.42
3524;BME280;1776;53.330;11.498;2022-08-21T09:09:02;53519.06;;;-147.39;43.48
3524;BME280;1776;53.330;11.498;2022-08-21T09:17:31;53504.75;;;-147.39;42.21
3524;BME280;1776;53.330;11.498;2022-08-21T09:22:38;53488.34;;;-147.39;42.00
3524;BME280;1776;53.330;11.498;2022-08-21T09:25:30;53523.19;;;-147.39;40.87
3524;BME280;1776;53.330;11.498;2022-08-21T09:27:57;53494.50;;;-147.39;41.78
3524;BME280;1776;53.330;11.498;2022-08-21T09:30:29;53500.66;;;-147.39;41.91
3524;BME280;1776;53.330;11.498;2022-08-21T09:32:55;53504.75;;;-147.39;41.45
3524;BME280;1776;53.330;11.498;2022-08-21T09:35:23;53461.72;;;-147.39;41.74
3524;BME280;1776;53.330;11.498;2022-08-21T09:37:53;53490.41;;;-147.39;41.72
3524;BME280;1776;53.330;11.498;2022-08-21T09:45:36;53506.78;;;-147.39;39.12
3524;BME280;1776;53.330;11.498;2022-08-21T09:48:19;53504.75;;;-147.39;39.44
3524;BME280;1776;53.330;11.498;2022-08-21T09:50:46;53474.00;;;-147.39;40.40
3524;BME280;1776;53.330;11.498;2022-08-21T09:53:19;53492.44;;;-147.39;40.18
3524;BME280;1776;53.330;11.498;2022-08-21T09:55:52;53455.56;;;-147.39;39.56
3524;BME280;1776;53.330;11.498;2022-08-21T09:58:39;53488.34;;;-147.39;39.06
3524;BME280;1776;53.330;11.498;2022-08-21T10:01:11;53484.25;;;-147.39;39.26
3524;BME280;1776;53.330;11.498;2022-08-21T10:03:37;53502.69;;;-147.39;39.89
3524;BME280;1776;53.330;11.498;2022-08-21T10:06:06;53484.25;;;-147.39;41.29
3524;BME280;1776;53.330;11.498;2022-08-21T10:08:35;53474.00;;;-147.39;41.56
3524;BME280;1776;53.330;11.498;2022-08-21T10:11:07;53474.00;;;-147.39;39.85
3524;BME280;1776;53.330;11.498;2022-08-21T10:16:58;53465.81;;;-147.39;39.05
3524;BME280;1776;53.330;11.498;2022-08-21T10:19:41;53471.97;;;-147.39;39.47
3524;BME280;1776;53.330;11.498;2022-08-21T10:22:15;53496.53;;;-147.39;39.89
3524;BME280;1776;53.330;11.498;2022-08-21T10:25:40;53457.63;;;-147.39;38.65
3524;BME280;1776;53.330;11.498;2022-08-21T10:28:00;53469.91;;;-147.39;38.84
3524;BME280;1776;53.330;11.498;2022-08-21T10:33:14;53486.31;;;-147.39;37.86
3524;BME280;1776;53.330;11.498;2022-08-21T10:36:05;53459.66;;;-147.39;37.91
3524;BME280;1776;53.330;11.498;2022-08-21T10:38:49;53461.72;;;-147.39;37.73
3524;BME280;1776;53.330;11.498;2022-08-21T10:44:16;53455.56;;;-147.39;36.62
3524;BME280;1776;53.330;11.498;2022-08-21T10:46:54;53463.78;;;-147.39;38.31
3524;BME280;1776;53.330;11.498;2022-08-21T10:54:56;53453.53;;;-147.39;38.34
3524;BME280;1776;53.330;11.498;2022-08-21T11:00:15;53467.88;;;-147.39;37.70
3524;BME280;1776;53.330;11.498;2022-08-21T11:02:57;53490.41;;;-147.39;38.46
3524;BME280;1776;53.330;11.498;2022-08-21T11:05:33;53492.44;;;-147.39;38.20
3524;BME280;1776;53.330;11.498;2022-08-21T11:10:37;53494.50;;;-147.39;38.98
3524;BME280;1776;53.330;11.498;2022-08-21T11:13:14;53506.78;;;-147.39;38.95
3524;BME280;1776;53.330;11.498;2022-08-21T11:15:56;53476.06;;;-147.39;39.12
3524;BME280;1776;53.330;11.498;2022-08-21T11:18:41;53447.38;;;-147.39;38.21
3524;BME280;1776;53.330;11.498;2022-08-21T11:21:29;53447.38;;;-147.39;38.55
3524;BME280;1776;53.330;11.498;2022-08-21T11:23:59;53461.72;;;-147.39;38.03
3524;BME280;1776;53.330;11.498;2022-08-21T11:26:47;53451.47;;;-147.39;38.29
3524;BME280;1776;53.330;11.498;2022-08-21T11:29:24;53480.16;;;-147.39;37.54
3524;BME280;1776;53.330;11.498;2022-08-21T11:43:08;53428.94;;;-147.39;36.59
3524;BME280;1776;53.330;11.498;2022-08-21T11:45:45;53400.25;;;-147.39;36.12
3524;BME280;1776;53.330;11.498;2022-08-21T11:48:46;53377.72;;;-147.39;35.78
3524;BME280;1776;53.330;11.498;2022-08-21T11:51:20;53394.13;;;-147.39;35.39
3524;BME280;1776;53.330;11.498;2022-08-21T11:56:55;53435.09;;;-147.39;35.84
3524;BME280;1776;53.330;11.498;2022-08-21T11:59:32;53437.13;;;-147.39;35.58
3524;BME280;1776;53.330;11.498;2022-08-21T12:02:00;53437.13;;;-147.39;35.95
3524;BME280;1776;53.330;11.498;2022-08-21T12:04:28;53406.41;;;-147.39;36.21
3524;BME280;1776;53.330;11.498;2022-08-21T12:06:56;53428.94;;;-147.39;36.45
3524;BME280;1776;53.330;11.498;2022-08-21T12:12:12;53437.13;;;-147.39;35.76
3524;BME280;1776;53.330;11.498;2022-08-21T12:14:47;53408.47;;;-147.39;36.33
3524;BME280;1776;53.330;11.498;2022-08-21T12:17:20;53416.66;;;-147.39;35.77
3524;BME280;1776;53.330;11.498;2022-08-21T12:19:59;53443.28;;;-147.39;35.57
3524;BME280;1776;53.330;11.498;2022-08-21T12:22:37;53426.91;;;-147.39;35.82
3524;BME280;1776;53.330;11.498;2022-08-21T12:25:07;53396.16;;;-147.39;35.75
3524;BME280;1776;53.330;11.498;2022-08-21T12:27:49;53422.81;;;-147.39;35.98
3524;BME280;1776;53.330;11.498;2022-08-21T12:33:02;53410.50;;;-147.39;35.14
3524;BME280;1776;53.330;11.498;2022-08-21T12:35:39;53422.81;;;-147.39;35.23
3524;BME280;1776;53.330;11.498;2022-08-21T12:38:24;53400.25;;;-147.39;35.12
3524;BME280;1776;53.330;11.498;2022-08-21T12:41:04;53418.69;;;-147.39;35.55
3524;BME280;1776;53.330;11.498;2022-08-21T12:43:35;53437.13;;;-147.39;35.86
3524;BME280;1776;53.330;11.498;2022-08-21T12:46:02;53416.66;;;-147.39;35.92
3524;BME280;1776;53.330;11.498;2022-08-21T12:48:43;53437.13;;;-147.39;36.04
3524;BME280;1776;53.330;11.498;2022-08-21T12:51:14;53453.53;;;-147.39;35.99
3524;BME280;1776;53.330;11.498;2022-08-21T12:53:45;53426.91;;;-147.39;36.69
3524;BME280;1776;53.330;11.498;2022-08-21T12:56:15;53459.66;;;-147.39;36.46
3524;BME280;1776;53.330;11.498;2022-08-21T12:58:46;53439.19;;;-147.39;36.52
3524;BME280;1776;53.330;11.498;2022-08-21T13:01:25;53408.47;;;-147.39;36.20
3524;BME280;1776;53.330;11.498;2022-08-21T13:03:54;53437.13;;;-147.39;36.67
3524;BME280;1776;53.330;11.498;2022-08-21T13:06:22;53412.56;;;-147.39;35.88
3524;BME280;1776;53.330;11.498;2022-08-21T13:08:52;53500.66;;;-147.39;36.18
3524;BME280;1776;53.330;11.498;2022-08-21T13:11:21;53428.94;;;-147.39;36.04
3524;BME280;1776;53.330;11.498;2022-08-21T13:13:51;53424.84;;;-147.39;35.92
3524;BME280;1776;53.330;11.498;2022-08-21T13:16:22;53431.00;;;-147.39;36.23
3524;BME280;1776;53.330;11.498;2022-08-21T13:19:00;53394.13;;;-147.39;35.69
3524;BME280;1776;53.330;11.498;2022-08-21T13:21:32;53408.47;;;-147.39;35.50
3524;BME280;1776;53.330;11.498;2022-08-21T13:24:19;53420.75;;;-147.39;35.65
3524;BME280;1776;53.330;11.498;2022-08-21T13:26:45;53428.94;;;-147.39;36.32
3524;BME280;1776;53.330;11.498;2022-08-21T13:29:14;53406.41;;;-147.39;36.07
3524;BME280;1776;53.330;11.498;2022-08-21T13:31:42;53400.25;;;-147.39;36.67
3524;BME280;1776;53.330;11.498;2022-08-21T13:34:11;53426.91;;;-147.39;36.16
3524;BME280;1776;53.330;11.498;2022-08-21T13:36:39;53422.81;;;-147.39;36.36
3524;BME280;1776;53.330;11.498;2022-08-21T13:39:12;53412.56;;;-147.39;36.10
3524;BME280;1776;53.330;11.498;2022-08-21T13:41:42;53383.88;;;-147.39;35.55
3524;BME280;1776;53.330;11.498;2022-08-21T13:44:21;53400.25;;;-147.39;35.77
3524;BME280;1776;53.330;11.498;2022-08-21T13:46:48;53398.22;;;-147.39;35.36
3524;BME280;1776;53.330;11.498;2022-08-21T13:49:16;53392.06;;;-147.39;35.74
3524;BME280;1776;53.330;11.498;2022-08-21T13:51:42;53387.97;;;-147.39;35.36
3524;BME280;1776;53.330;11.498;2022-08-21T13:54:26;53379.78;;;-147.39;35.30